Terminal Aerodrome Forecast
Issued by NWS

Home | Current Version | Previous Version | Text Only | Print | Product List | Glossary On
Versions: 1 2 3 4 5 6 7 8 9 10 11 12 13 14 15 16 17
242
FTUS43 KDVN 251730
TAFCID
TAF
KCID 251730Z 2518/2618 19010KT P6SM SCT020 BKN040
      TEMPO 2518/2520 BKN020
     FM260100 18007KT P6SM SCT100 BKN200
     FM260900 18006KT 5SM BR BKN035
     FM261500 22010KT P6SM SCT120=

USA.gov is the U.S. government's official web portal to all federal, state and local government web resources and services.